Chapelle, New Mexico
Current Conditions -  °F | °C
As of 4:53 PM on Wednesday 22 Oct 2014 (Local Time) from KLVS Reporting Station
Scattered Clouds Scattered Clouds  
Wind Chill: 67°   Ceiling: Unl
Heat Index: 67°   Visibility: 10mi
Dew Point: 33°   Wind: 0mph
Humidity: 28%   Direction: NA
Pressure: 30.16"   Gusts: NA
Location:  35.3928°N, 105.316°W
Report Text: KLVS 222253Z AUTO 00000KT 10SM SCT090 19/01 A3016 RMK AO2 SLP128 T01940006
Loading
Personal Weather Stations






























Interactive Weather Map
Tropical Storm Tracking
New forecast layout! Learn more

10-Day Weather Forecast

Advertisements
Track Severe Weather on mobile